Huvudsida
METAR-TAF:

METAR-TAF

Flygplatser :

Svolvær, Norge

Svolværs flygplats. Helle

latitud: 68-15N, longitud: 014-40E, höjd: 0 m

Aktuellt väderrapport

Denna rapport gjordes för 1 timme och 13 minuter sedan, klockan 13:50 UTC
Vind 8 kt från nord
Temperatur 7°C
Fuktighet 76%
Tryck 1000 hPa
Sikt 10 km eller mer
Få moln på en höjd av 3500 ft
Spridda moln på en höjd av 4700 ft

METAR: ENSH 211350Z 36008KT 9999 FEW035 SCT047 07/03 Q1000 RMK WIND 150FT 35008KT

Tid: 17:03 (15:03 UTC)

Väderprognos

Denna rapport gjordes för 7 timmar och 3 minuter sedan, klockan 08:00 UTC
Prognos gäller från 21 kl. 09 UTC till 21 kl. 13 UTC
Vind 5 kt varierande vindriktning
Sikt 10 km eller mer
Få moln på en höjd av 2000 ft
Brutna moln på en höjd av 5000 ft

TAF: ENSH 210800Z 2109/2113 VRB05KT 9999 FEW020 BKN050

Aktuella väderrapporter och prognoser från 4000 flygplatser (METAR- och TAF-rapporter).

De tillgängliga stationerna syns som gula och röda prickar på kartan.

För musen över prickarna för att se namnen på stationerna.

Klicka sedan för att få väderrapporter och prognoser.

För att ändra kartan: Klicka på de gröna knapparna med ett svart kors på för att zooma in; den gröna knappen med ett streck på för att zooma ut; eller på de gröna pilarna för angränsande kartor.


METAR-TAF: